createdAt,value
2022-12-05T00:01:31.255Z,20.93
2022-12-05T00:04:01.343Z,19.43
2022-12-05T00:06:30.903Z,22.00
2022-12-05T00:08:58.705Z,21.20
2022-12-05T00:11:29.903Z,21.33
2022-12-05T00:13:59.814Z,22.57
2022-12-05T00:16:29.944Z,18.60
2022-12-05T00:19:00.668Z,21.10
2022-12-05T00:21:35.090Z,21.13
2022-12-05T00:24:03.808Z,21.90
2022-12-05T00:26:31.796Z,23.50
2022-12-05T00:28:59.719Z,21.87
2022-12-05T00:31:28.252Z,23.50
2022-12-05T00:33:55.862Z,22.43
2022-12-05T00:36:28.262Z,24.27
2022-12-05T00:38:56.127Z,23.43
2022-12-05T00:41:26.502Z,22.07
2022-12-05T00:43:54.559Z,24.10
2022-12-05T00:46:24.925Z,23.20
2022-12-05T00:48:56.750Z,23.60
2022-12-05T00:51:34.535Z,22.90
2022-12-05T00:54:05.924Z,20.97
2022-12-05T00:56:34.265Z,22.67
2022-12-05T00:59:02.983Z,24.00
2022-12-05T01:01:37.070Z,19.17
2022-12-05T01:04:17.541Z,20.10
2022-12-05T01:06:44.838Z,20.30
2022-12-05T01:09:14.712Z,20.47
2022-12-05T01:11:42.241Z,20.90
2022-12-05T01:14:12.534Z,21.23
2022-12-05T01:16:41.621Z,19.93
2022-12-05T01:19:33.530Z,20.70
2022-12-05T01:22:01.019Z,20.47
2022-12-05T01:24:29.462Z,19.47
2022-12-05T01:26:57.233Z,19.60
2022-12-05T01:29:25.539Z,20.50
2022-12-05T01:31:53.233Z,14.23
2022-12-05T01:34:20.807Z,11.23
2022-12-05T01:36:47.991Z,17.53
2022-12-05T01:39:16.028Z,17.50
2022-12-05T01:41:47.612Z,18.73
2022-12-05T01:44:14.410Z,16.93
2022-12-05T01:46:50.945Z,13.40
2022-12-05T01:49:41.330Z,17.67
2022-12-05T01:52:20.303Z,16.70
2022-12-05T01:54:50.772Z,19.53
2022-12-05T01:57:17.975Z,16.10
2022-12-05T01:59:50.864Z,17.30
2022-12-05T02:02:18.381Z,18.07
2022-12-05T02:05:23.374Z,18.67
2022-12-05T02:07:50.892Z,13.20
2022-12-05T02:10:18.389Z,15.00
2022-12-05T02:12:46.323Z,15.30
2022-12-05T02:15:26.404Z,19.03
2022-12-05T02:18:27.136Z,15.80
2022-12-05T02:21:09.586Z,17.27
2022-12-05T02:24:19.528Z,17.03
2022-12-05T02:27:15.699Z,11.57
2022-12-05T02:30:08.848Z,7.47
2022-12-05T02:33:21.862Z,13.93
2022-12-05T02:36:13.466Z,13.53
2022-12-05T02:38:40.296Z,14.03
2022-12-05T02:41:23.005Z,15.40
2022-12-05T02:44:09.080Z,15.70
2022-12-05T02:46:39.341Z,12.57
2022-12-05T02:49:11.875Z,10.20
2022-12-05T02:51:43.506Z,13.10
2022-12-05T02:54:21.436Z,11.00
2022-12-05T02:56:50.936Z,15.73
2022-12-05T02:59:23.037Z,11.30
2022-12-05T03:01:51.276Z,12.10
2022-12-05T03:04:21.204Z,13.80
2022-12-05T03:06:58.836Z,14.00
2022-12-05T03:09:42.467Z,8.13
2022-12-05T03:12:19.370Z,11.17
2022-12-05T03:15:04.568Z,9.70
2022-12-05T03:17:38.345Z,10.23
2022-12-05T03:20:26.735Z,14.50
2022-12-05T03:23:02.029Z,13.67
2022-12-05T03:25:54.904Z,12.40
2022-12-05T03:28:58.316Z,12.57
2022-12-05T03:31:38.265Z,11.20
2022-12-05T03:34:12.867Z,12.50
2022-12-05T03:36:45.325Z,13.47
2022-12-05T03:39:30.697Z,10.80
2022-12-05T03:42:13.370Z,12.30
2022-12-05T03:45:01.609Z,13.23
2022-12-05T03:47:45.515Z,14.60
2022-12-05T03:50:31.055Z,11.10
2022-12-05T03:53:22.204Z,11.30
2022-12-05T03:56:08.955Z,13.10
2022-12-05T03:59:06.488Z,11.97
2022-12-05T04:01:35.075Z,11.17
2022-12-05T04:04:29.766Z,12.90
2022-12-05T04:06:59.086Z,12.73
2022-12-05T04:09:39.570Z,13.20
2022-12-05T04:12:15.265Z,12.23
2022-12-05T04:14:55.619Z,12.87
2022-12-05T04:17:34.722Z,10.83
2022-12-05T04:20:29.135Z,14.20
2022-12-05T04:22:56.355Z,10.10
2022-12-05T04:25:34.250Z,12.10
2022-12-05T04:28:19.585Z,11.77
2022-12-05T04:30:57.129Z,10.47
2022-12-05T04:33:45.224Z,10.83
2022-12-05T04:36:12.091Z,13.63
2022-12-05T04:39:03.367Z,12.87
2022-12-05T04:41:38.256Z,13.60
2022-12-05T04:44:11.335Z,12.67
2022-12-05T04:46:41.963Z,12.20
2022-12-05T04:49:15.866Z,12.17
2022-12-05T04:51:45.317Z,13.63
2022-12-05T04:54:20.037Z,12.57
2022-12-05T04:56:53.681Z,12.77
2022-12-05T04:59:23.703Z,12.63
2022-12-05T05:01:58.583Z,13.03
2022-12-05T05:04:42.215Z,13.07
2022-12-05T05:07:11.948Z,11.70
2022-12-05T05:09:40.520Z,12.33
2022-12-05T05:12:07.863Z,13.33
2022-12-05T05:14:35.173Z,12.47
2022-12-05T05:17:02.269Z,12.80
2022-12-05T05:19:29.476Z,11.70
2022-12-05T05:21:56.600Z,14.23
2022-12-05T05:24:25.882Z,13.67
2022-12-05T05:26:57.319Z,13.33
2022-12-05T05:29:24.920Z,12.73
2022-12-05T05:31:51.899Z,14.80
2022-12-05T05:34:18.897Z,13.50
2022-12-05T05:36:45.855Z,11.63
2022-12-05T05:39:15.357Z,13.50
2022-12-05T05:41:43.548Z,16.87
2022-12-05T05:44:10.946Z,12.23
2022-12-05T05:46:38.655Z,15.30
2022-12-05T05:49:05.880Z,13.80
2022-12-05T05:51:32.897Z,15.57
2022-12-05T05:54:00.470Z,13.43
2022-12-05T05:56:28.426Z,14.00
2022-12-05T05:59:01.830Z,14.33
2022-12-05T06:01:29.787Z,12.50
2022-12-05T06:03:57.176Z,14.53
2022-12-05T06:06:25.181Z,14.13
2022-12-05T06:08:52.091Z,14.40
2022-12-05T06:11:26.331Z,14.30
2022-12-05T06:13:56.350Z,14.63
2022-12-05T06:16:24.614Z,13.43
2022-12-05T06:18:53.330Z,11.50
2022-12-05T06:21:21.567Z,14.50
2022-12-05T06:23:49.550Z,14.10
2022-12-05T06:26:19.759Z,13.37
2022-12-05T06:28:46.882Z,12.57
2022-12-05T06:31:22.614Z,12.70
2022-12-05T06:33:50.098Z,14.80
2022-12-05T06:36:22.282Z,13.50
2022-12-05T06:38:49.787Z,12.40
2022-12-05T06:41:19.969Z,14.40
2022-12-05T06:43:47.597Z,13.27
2022-12-05T06:46:15.816Z,14.10
2022-12-05T06:48:42.937Z,14.63
2022-12-05T06:51:13.512Z,14.50
2022-12-05T06:53:41.168Z,13.53
2022-12-05T06:56:13.610Z,14.87
2022-12-05T06:58:42.233Z,12.83
2022-12-05T07:01:36.317Z,13.17
2022-12-05T07:04:25.773Z,14.00
2022-12-05T07:06:55.525Z,12.57
2022-12-05T07:09:45.858Z,14.20
2022-12-05T07:12:15.100Z,12.77
2022-12-05T07:14:48.043Z,13.53
2022-12-05T07:17:15.426Z,23.40
2022-12-05T07:19:42.342Z,15.30
2022-12-05T07:22:13.867Z,12.83
2022-12-05T07:24:43.865Z,15.93
2022-12-05T07:27:11.114Z,15.10
2022-12-05T07:29:38.120Z,16.27
2022-12-05T07:32:05.693Z,16.00
2022-12-05T07:34:32.734Z,14.37
2022-12-05T07:37:00.852Z,14.90
2022-12-05T07:39:28.103Z,16.87
2022-12-05T07:41:55.011Z,15.83
2022-12-05T07:44:22.002Z,16.50
2022-12-05T07:46:48.957Z,15.67
2022-12-05T07:49:15.961Z,13.70
2022-12-05T07:51:42.931Z,16.20
2022-12-05T07:54:09.831Z,16.10
2022-12-05T07:56:36.794Z,15.27
2022-12-05T07:59:03.883Z,16.37
2022-12-05T08:01:31.001Z,13.97
2022-12-05T08:03:59.577Z,14.30
2022-12-05T08:06:29.939Z,17.63
2022-12-05T08:08:57.403Z,13.20
2022-12-05T08:11:28.156Z,15.60
2022-12-05T08:13:56.423Z,17.97
2022-12-05T08:16:27.268Z,14.27
2022-12-05T08:19:02.985Z,14.47
2022-12-05T08:21:30.751Z,14.77
2022-12-05T08:23:58.296Z,15.40
2022-12-05T08:26:28.403Z,17.00
2022-12-05T08:28:59.532Z,19.30
2022-12-05T08:31:29.581Z,15.77
2022-12-05T08:33:59.386Z,12.43
2022-12-05T08:36:29.207Z,14.07
2022-12-05T08:39:02.043Z,16.00
2022-12-05T08:41:30.231Z,13.70
2022-12-05T08:44:05.376Z,14.17
2022-12-05T08:46:34.839Z,13.97
2022-12-05T08:49:03.379Z,12.47
2022-12-05T08:51:30.353Z,12.53
2022-12-05T08:53:57.328Z,12.50
2022-12-05T08:56:27.398Z,12.20
2022-12-05T08:58:59.826Z,12.30
2022-12-05T09:01:32.132Z,12.30
2022-12-05T09:04:01.162Z,12.60
2022-12-05T09:06:29.814Z,12.07
2022-12-05T09:09:00.476Z,14.10
2022-12-05T09:11:31.397Z,12.23
2022-12-05T09:14:00.487Z,13.20
2022-12-05T09:16:36.873Z,11.47
2022-12-05T09:19:27.678Z,11.30
2022-12-05T09:21:55.609Z,11.83
2022-12-05T09:24:22.678Z,12.87
2022-12-05T09:26:50.034Z,12.47
2022-12-05T09:29:18.178Z,12.70
2022-12-05T09:31:47.896Z,10.73
2022-12-05T09:34:17.877Z,11.83
2022-12-05T09:36:46.410Z,13.63
2022-12-05T09:39:13.398Z,12.20
2022-12-05T09:42:23.455Z,14.50
2022-12-05T09:45:29.386Z,14.43
2022-12-05T09:48:14.010Z,11.77
2022-12-05T09:50:46.147Z,12.33
2022-12-05T09:53:30.923Z,11.40
2022-12-05T09:56:05.885Z,11.90
2022-12-05T09:58:53.928Z,12.40
2022-12-05T10:01:57.908Z,15.40
2022-12-05T10:05:00.796Z,14.37
2022-12-05T10:07:42.802Z,13.17
2022-12-05T10:10:25.048Z,11.47
2022-12-05T10:13:18.629Z,10.23
2022-12-05T10:15:56.775Z,10.53
2022-12-05T10:18:30.382Z,10.33
2022-12-05T10:21:05.733Z,9.40
2022-12-05T10:23:58.968Z,8.93
2022-12-05T10:26:58.767Z,11.20
2022-12-05T10:29:35.547Z,9.60
2022-12-05T10:32:18.967Z,9.03
2022-12-05T10:34:46.647Z,9.10
2022-12-05T10:37:22.587Z,10.60
2022-12-05T10:39:51.179Z,10.10
2022-12-05T10:42:34.909Z,10.60
2022-12-05T10:45:09.128Z,9.70
2022-12-05T10:47:36.453Z,9.77
2022-12-05T10:50:33.115Z,9.97
2022-12-05T10:53:03.413Z,11.73
2022-12-05T10:56:00.076Z,9.00
2022-12-05T10:58:32.399Z,10.70
2022-12-05T11:01:09.342Z,9.17
2022-12-05T11:03:42.241Z,10.70
2022-12-05T11:06:30.314Z,9.80
2022-12-05T11:09:05.052Z,9.63
2022-12-05T11:11:33.696Z,9.13
2022-12-05T11:14:23.910Z,11.30
2022-12-05T11:16:56.654Z,11.50
2022-12-05T11:19:29.547Z,11.60
2022-12-05T11:21:57.601Z,10.50
2022-12-05T11:24:36.752Z,13.33
2022-12-05T11:27:16.343Z,11.23
2022-12-05T11:29:46.699Z,11.43
2022-12-05T11:32:21.156Z,10.40
2022-12-05T11:35:09.548Z,24.90
2022-12-05T11:37:53.426Z,12.10
2022-12-05T11:40:39.549Z,12.63
2022-12-05T11:43:15.567Z,10.40
2022-12-05T11:45:54.199Z,8.57
2022-12-05T11:49:03.807Z,13.00
2022-12-05T11:51:44.516Z,10.83
2022-12-05T11:58:02.970Z,12.27
2022-12-05T12:00:52.271Z,10.87
2022-12-05T12:03:48.707Z,11.27
2022-12-05T12:06:49.076Z,10.37
2022-12-05T12:09:47.360Z,11.30
2022-12-05T12:12:19.957Z,12.40
2022-12-05T12:15:07.141Z,12.57
2022-12-05T12:17:49.221Z,11.50
2022-12-05T12:20:24.994Z,12.20
2022-12-05T12:23:01.301Z,12.20
2022-12-05T12:25:50.005Z,11.77
2022-12-05T12:28:46.779Z,11.93
2022-12-05T12:31:23.080Z,12.63
2022-12-05T12:34:04.210Z,12.57
2022-12-05T12:36:46.546Z,11.47
2022-12-05T12:39:43.475Z,12.77
2022-12-05T12:42:31.287Z,11.50
2022-12-05T12:45:38.113Z,11.00
2022-12-05T12:48:29.322Z,11.20
2022-12-05T12:51:01.229Z,12.33
2022-12-05T12:53:47.808Z,10.10
2022-12-05T12:57:01.669Z,10.10
2022-12-05T13:00:03.292Z,11.70
2022-12-05T13:02:41.411Z,12.00
2022-12-05T13:05:23.885Z,11.37
2022-12-05T13:08:18.455Z,10.80
2022-12-05T13:10:48.221Z,10.10
2022-12-05T13:13:38.390Z,13.07
2022-12-05T13:16:08.072Z,10.80
2022-12-05T13:18:35.892Z,11.43
2022-12-05T13:21:09.228Z,12.30
2022-12-05T13:23:47.620Z,11.40
2022-12-05T13:26:15.463Z,11.60
2022-12-05T13:28:54.062Z,11.13
2022-12-05T13:31:45.341Z,12.27
2022-12-05T13:34:35.326Z,10.07
2022-12-05T13:37:59.293Z,10.50
2022-12-05T13:40:48.788Z,11.37
2022-12-05T13:43:27.405Z,10.70
2022-12-05T13:46:09.953Z,9.43
2022-12-05T13:48:41.179Z,11.13
2022-12-05T13:51:32.375Z,9.90
2022-12-05T13:54:18.385Z,10.00
2022-12-05T13:56:58.956Z,10.10
2022-12-05T14:00:24.105Z,9.57
2022-12-05T14:02:54.065Z,10.13
2022-12-05T14:05:21.050Z,9.17
2022-12-05T14:08:35.702Z,9.97
2022-12-05T14:11:05.811Z,10.90
2022-12-05T14:13:33.719Z,11.17
2022-12-05T14:16:25.689Z,10.70
2022-12-05T14:19:24.341Z,11.50
2022-12-05T14:22:01.441Z,10.00
2022-12-05T14:24:53.445Z,9.50
2022-12-05T14:27:41.315Z,10.57
2022-12-05T14:30:41.853Z,10.83
2022-12-05T14:33:17.903Z,13.60
2022-12-05T14:35:48.521Z,11.90
2022-12-05T14:38:28.604Z,10.50
2022-12-05T14:41:12.926Z,10.80
2022-12-05T14:43:41.459Z,10.07
2022-12-05T14:46:29.830Z,10.67
2022-12-05T14:48:57.059Z,10.50
2022-12-05T14:51:33.072Z,9.33
2022-12-05T14:54:20.460Z,9.80
2022-12-05T14:57:04.230Z,9.93
2022-12-05T14:59:52.337Z,10.80
2022-12-05T15:02:29.755Z,11.23
2022-12-05T15:05:18.320Z,10.07
2022-12-05T15:07:46.799Z,10.30
2022-12-05T15:10:33.919Z,12.40
2022-12-05T15:13:22.211Z,13.17
2022-12-05T15:16:14.457Z,18.30
2022-12-05T15:18:49.644Z,18.30
2022-12-05T15:21:32.505Z,13.13
2022-12-05T15:24:06.404Z,15.10
2022-12-05T15:26:52.137Z,12.60
2022-12-05T15:29:25.412Z,12.97
2022-12-05T15:31:53.393Z,12.87
2022-12-05T15:34:30.602Z,13.37
2022-12-05T15:37:06.739Z,15.00
2022-12-05T15:39:52.949Z,13.70
2022-12-05T15:42:40.936Z,13.57
2022-12-05T15:45:14.621Z,12.20
2022-12-05T15:47:43.348Z,11.87
2022-12-05T15:50:30.732Z,12.20
2022-12-05T15:53:12.161Z,10.80
2022-12-05T15:55:51.095Z,16.70
2022-12-05T15:58:29.473Z,19.70
2022-12-05T16:01:12.664Z,18.20
2022-12-05T16:03:59.494Z,18.30
2022-12-05T16:06:31.525Z,20.27
2022-12-05T16:08:59.528Z,15.33
2022-12-05T16:11:27.632Z,18.00
2022-12-05T16:13:57.792Z,12.50
2022-12-05T16:16:29.666Z,11.60
2022-12-05T16:18:59.678Z,10.73
2022-12-05T16:21:38.625Z,12.10
2022-12-05T16:24:27.817Z,13.13
2022-12-05T16:26:59.202Z,13.63
2022-12-05T16:29:34.395Z,11.70
2022-12-05T16:32:04.065Z,12.93
2022-12-05T16:34:33.819Z,21.30
2022-12-05T16:37:01.299Z,18.27
2022-12-05T16:39:28.842Z,14.73
2022-12-05T16:41:56.283Z,114.27
2022-12-05T16:44:31.425Z,16.17
2022-12-05T16:46:58.990Z,17.43
2022-12-05T16:49:38.812Z,16.03
2022-12-05T16:52:09.688Z,18.80
2022-12-05T16:54:36.605Z,17.77
2022-12-05T16:57:04.532Z,17.37
2022-12-05T16:59:38.511Z,15.83
2022-12-05T17:02:12.865Z,19.63
2022-12-05T17:04:40.390Z,24.67
2022-12-05T17:07:07.390Z,25.27
2022-12-05T17:09:34.405Z,25.37
2022-12-05T17:12:24.045Z,19.47
2022-12-05T17:14:51.194Z,17.37
2022-12-05T17:17:18.951Z,15.63
2022-12-05T17:19:46.195Z,14.30
2022-12-05T17:22:18.129Z,13.40
2022-12-05T17:24:45.542Z,14.53
2022-12-05T17:27:13.011Z,12.60
2022-12-05T17:29:39.916Z,13.80
2022-12-05T17:32:07.007Z,13.60
2022-12-05T17:34:33.944Z,17.17
2022-12-05T17:37:01.115Z,18.60
2022-12-05T17:39:28.894Z,17.13
2022-12-05T17:41:56.372Z,20.67
2022-12-05T17:44:23.676Z,18.67
2022-12-05T17:46:50.813Z,21.13
2022-12-05T17:49:18.416Z,19.43
2022-12-05T17:52:13.602Z,21.07
2022-12-05T17:54:32.677Z,21.30
2022-12-05T17:56:59.601Z,21.37
2022-12-05T17:59:26.496Z,22.80
2022-12-05T18:01:53.465Z,22.53
2022-12-05T18:07:07.466Z,24.20
2022-12-05T18:09:34.432Z,22.27
2022-12-05T18:12:01.460Z,21.03
2022-12-05T18:14:28.551Z,22.33
2022-12-05T18:16:55.693Z,17.80
2022-12-05T18:19:22.655Z,20.70
2022-12-05T18:21:49.601Z,18.80
2022-12-05T18:24:17.035Z,19.03
2022-12-05T18:26:44.075Z,23.83
2022-12-05T18:29:11.071Z,22.40
2022-12-05T18:31:41.398Z,21.20
2022-12-05T18:34:08.800Z,18.87
2022-12-05T18:36:35.760Z,19.90
2022-12-05T18:39:02.713Z,19.83
2022-12-05T18:41:29.705Z,17.63
2022-12-05T18:43:56.758Z,18.83
2022-12-05T18:46:24.316Z,18.47
2022-12-05T18:48:51.386Z,16.40
2022-12-05T18:51:23.736Z,17.27
2022-12-05T18:53:54.067Z,30.20
2022-12-05T18:56:30.966Z,21.63
2022-12-05T18:59:02.446Z,20.07
2022-12-05T19:01:31.843Z,22.40
2022-12-05T19:04:00.755Z,21.70
2022-12-05T19:06:31.010Z,26.97
2022-12-05T19:09:00.561Z,26.07
2022-12-05T19:11:28.786Z,26.80
2022-12-05T19:13:57.518Z,25.87
2022-12-05T19:16:26.170Z,29.90
2022-12-05T19:18:56.151Z,30.03
2022-12-05T19:21:29.798Z,30.03
2022-12-05T19:23:57.562Z,27.90
2022-12-05T19:26:25.971Z,31.80
2022-12-05T19:28:53.173Z,29.67
2022-12-05T19:31:23.850Z,31.20
2022-12-05T19:33:54.853Z,32.33
2022-12-05T19:36:27.401Z,31.27
2022-12-05T19:38:55.775Z,28.73
2022-12-05T19:41:26.942Z,27.50
2022-12-05T19:43:54.907Z,29.27
2022-12-05T19:46:25.179Z,28.30
2022-12-05T19:48:53.432Z,28.90
2022-12-05T19:51:20.945Z,30.97
2022-12-05T19:53:49.825Z,30.00
2022-12-05T19:56:23.860Z,28.40
2022-12-05T19:58:53.048Z,30.37
2022-12-05T20:01:23.853Z,31.90
2022-12-05T20:03:53.855Z,30.90
2022-12-05T20:06:21.788Z,35.60
2022-12-05T20:08:51.208Z,43.17
2022-12-05T20:11:24.894Z,43.60
2022-12-05T20:13:55.533Z,37.03
2022-12-05T20:16:26.787Z,30.00
2022-12-05T20:18:58.085Z,29.53
2022-12-05T20:21:27.432Z,30.90
2022-12-05T20:23:54.778Z,28.53
2022-12-05T20:26:28.608Z,33.60
2022-12-05T20:28:58.677Z,35.67
2022-12-05T20:31:35.672Z,36.67
2022-12-05T20:34:03.436Z,33.50
2022-12-05T20:36:33.711Z,34.30
2022-12-05T20:39:08.144Z,27.47
2022-12-05T20:41:35.985Z,27.40
2022-12-05T20:44:06.157Z,25.60
2022-12-05T20:46:35.025Z,27.33
2022-12-05T20:49:02.490Z,24.23
2022-12-05T20:51:33.303Z,26.93
2022-12-05T20:54:02.425Z,26.90
2022-12-05T20:56:33.835Z,25.23
2022-12-05T20:59:04.439Z,24.50
2022-12-05T21:01:35.185Z,24.10
2022-12-05T21:04:05.707Z,24.00
2022-12-05T21:06:36.215Z,24.10
2022-12-05T21:09:15.060Z,23.50
2022-12-05T21:11:42.945Z,22.40
2022-12-05T21:14:10.245Z,24.60
2022-12-05T21:16:37.587Z,23.57
2022-12-05T21:19:04.599Z,21.27
2022-12-05T21:21:34.065Z,21.00
2022-12-05T21:24:03.240Z,23.97
2022-12-05T21:26:33.867Z,21.73
2022-12-05T21:29:02.989Z,22.23
2022-12-05T21:31:36.525Z,19.37
2022-12-05T21:34:08.046Z,20.97
2022-12-05T21:36:36.741Z,21.83
2022-12-05T21:39:06.231Z,20.63
2022-12-05T21:41:34.302Z,21.33
2022-12-05T21:44:01.576Z,20.83
2022-12-05T21:46:28.741Z,20.63
2022-12-05T21:48:55.818Z,20.43
2022-12-05T21:51:23.847Z,20.80
2022-12-05T21:53:51.738Z,21.77
2022-12-05T21:56:23.433Z,21.33
2022-12-05T21:58:51.346Z,22.70
2022-12-05T22:01:22.846Z,21.33
2022-12-05T22:04:01.282Z,23.47
2022-12-05T22:06:29.958Z,19.43
2022-12-05T22:08:57.443Z,21.10
2022-12-05T22:11:25.361Z,24.27
2022-12-05T22:13:53.502Z,26.10
2022-12-05T22:16:21.640Z,29.23
2022-12-05T22:18:49.801Z,34.23
2022-12-05T22:21:19.679Z,33.10
2022-12-05T22:23:47.475Z,29.00
2022-12-05T22:26:24.040Z,25.60
2022-12-05T22:28:55.822Z,32.97
2022-12-05T22:31:24.096Z,28.87
2022-12-05T22:33:51.473Z,27.93
2022-12-05T22:36:20.106Z,27.77
2022-12-05T22:38:48.454Z,26.50
2022-12-05T22:41:19.962Z,24.20
2022-12-05T22:43:49.087Z,18.43
2022-12-05T22:46:19.791Z,19.57
2022-12-05T22:48:48.335Z,19.67
2022-12-05T22:51:16.339Z,18.50
2022-12-05T22:53:43.553Z,17.07
2022-12-05T22:56:16.410Z,17.40
2022-12-05T22:58:45.055Z,16.30
2022-12-05T23:01:33.727Z,15.07
2022-12-05T23:04:08.420Z,16.23
2022-12-05T23:06:37.044Z,16.37
2022-12-05T23:09:07.189Z,17.20
2022-12-05T23:11:34.492Z,15.60
2022-12-05T23:14:02.531Z,14.53
2022-12-05T23:16:32.100Z,17.60
2022-12-05T23:19:03.422Z,17.00
2022-12-05T23:21:40.541Z,14.93
2022-12-05T23:24:11.302Z,16.77
2022-12-05T23:26:44.517Z,15.40
2022-12-05T23:29:13.579Z,17.70
2022-12-05T23:31:42.103Z,16.20
2022-12-05T23:34:09.539Z,16.50
2022-12-05T23:36:36.883Z,17.73
2022-12-05T23:39:05.262Z,16.30
2022-12-05T23:41:32.601Z,16.43
2022-12-05T23:43:59.714Z,19.70
2022-12-05T23:46:28.388Z,21.03
2022-12-05T23:48:55.954Z,18.57
2022-12-05T23:51:26.482Z,20.77
2022-12-05T23:53:59.870Z,20.80
2022-12-05T23:56:30.528Z,20.40
2022-12-05T23:58:58.247Z,22.53
